createdAt,value
2024-02-29T00:01:17.288Z,100148.72
2024-02-29T00:03:44.994Z,100157.41
2024-02-29T00:06:12.614Z,100160.81
2024-02-29T00:08:41.574Z,100148.25
2024-02-29T00:11:09.181Z,100155.16
2024-02-29T00:13:36.980Z,100163.66
2024-02-29T00:16:04.970Z,100158.59
2024-02-29T00:18:32.622Z,100155.06
2024-02-29T00:21:00.242Z,100160.50
2024-02-29T00:23:27.875Z,100152.66
2024-02-29T00:25:56.789Z,100151.47
2024-02-29T00:28:24.456Z,100154.63
2024-02-29T00:30:52.079Z,100152.66
2024-02-29T00:33:19.810Z,100155.16
2024-02-29T00:35:49.605Z,100149.81
2024-02-29T00:38:17.633Z,100142.63
2024-02-29T00:40:45.701Z,100135.97
2024-02-29T00:43:14.685Z,100126.28
2024-02-29T00:45:42.765Z,100127.22
2024-02-29T00:48:11.634Z,100127.56
2024-02-29T00:50:39.428Z,100125.78
2024-02-29T00:53:07.079Z,100122.75
2024-02-29T00:55:34.892Z,100121.53
2024-02-29T00:58:02.474Z,100116.41
2024-02-29T01:00:31.742Z,100106.47
2024-02-29T01:02:59.401Z,100110.88
2024-02-29T01:05:26.996Z,100111.50
2024-02-29T01:07:54.631Z,100106.66
2024-02-29T01:10:22.242Z,100110.22
2024-02-29T01:12:49.874Z,100108.75
2024-02-29T01:15:17.943Z,100100.22
2024-02-29T01:17:50.626Z,100104.56
2024-02-29T01:20:19.492Z,100106.47
2024-02-29T01:22:47.053Z,100110.81
2024-02-29T01:25:14.692Z,100097.91
2024-02-29T01:27:42.372Z,100085.22
2024-02-29T01:30:11.044Z,100085.72
2024-02-29T01:32:38.764Z,100078.97
2024-02-29T01:35:09.605Z,100079.47
2024-02-29T01:37:37.249Z,100076.13
2024-02-29T01:40:05.578Z,100079.97
2024-02-29T01:42:33.214Z,100075.13
2024-02-29T01:45:00.790Z,100072.13
2024-02-29T01:47:28.559Z,100057.72
2024-02-29T01:49:59.244Z,100061.06
2024-02-29T01:52:30.621Z,100061.97
2024-02-29T01:54:58.410Z,100058.09
2024-02-29T01:57:26.702Z,100057.22
2024-02-29T01:59:54.292Z,100048.03
2024-02-29T02:02:21.877Z,100046.66
2024-02-29T02:04:49.613Z,100046.41
2024-02-29T02:07:17.772Z,100043.41
2024-02-29T02:09:47.392Z,100046.22
2024-02-29T02:12:15.581Z,100041.78
2024-02-29T02:14:43.186Z,100036.88
2024-02-29T02:17:11.147Z,100030.06
2024-02-29T02:19:40.511Z,100034.06
2024-02-29T02:22:10.869Z,100031.88
2024-02-29T02:24:38.837Z,100030.66
2024-02-29T02:27:06.586Z,100036.72
2024-02-29T02:29:34.145Z,100038.09
2024-02-29T02:32:01.739Z,100028.88
2024-02-29T02:34:29.306Z,100028.94
2024-02-29T02:36:56.985Z,100027.94
2024-02-29T02:39:26.243Z,100022.59
2024-02-29T02:41:53.862Z,100017.75
2024-02-29T02:44:21.446Z,100015.28
2024-02-29T02:46:49.126Z,100013.72
2024-02-29T02:49:17.012Z,100020.19
2024-02-29T02:51:44.742Z,100010.63
2024-02-29T02:54:12.384Z,100021.47
2024-02-29T02:56:41.395Z,100019.81
2024-02-29T02:59:09.006Z,100013.25
2024-02-29T03:01:36.621Z,100015.94
2024-02-29T03:04:05.388Z,100013.31
2024-02-29T03:06:33.267Z,100001.25
2024-02-29T03:09:00.881Z,99995.72
2024-02-29T03:11:28.470Z,99997.66
2024-02-29T03:13:58.832Z,99993.03
2024-02-29T03:16:27.618Z,99985.25
2024-02-29T03:18:55.477Z,99989.03
2024-02-29T03:21:23.370Z,99992.13
2024-02-29T03:23:50.998Z,99990.94
2024-02-29T03:26:18.601Z,99985.66
2024-02-29T03:28:46.201Z,99987.94
2024-02-29T03:31:15.513Z,99980.41
2024-02-29T03:33:43.600Z,99980.75
2024-02-29T03:36:11.291Z,99980.50
2024-02-29T03:38:39.090Z,99977.88
2024-02-29T03:41:07.641Z,99982.84
2024-02-29T03:43:36.347Z,99976.97
2024-02-29T03:46:04.433Z,99963.81
2024-02-29T03:48:33.424Z,99964.97
2024-02-29T03:51:01.125Z,99969.97
2024-02-29T03:53:28.698Z,99962.81
2024-02-29T03:55:56.633Z,99960.38
2024-02-29T03:58:24.499Z,99962.94
2024-02-29T04:00:52.231Z,99964.16
2024-02-29T04:03:20.161Z,99963.66
2024-02-29T04:05:49.109Z,99968.88
2024-02-29T04:08:16.848Z,99963.06
2024-02-29T04:10:47.210Z,99963.25
2024-02-29T04:13:14.890Z,99964.06
2024-02-29T04:15:43.154Z,99961.50
2024-02-29T04:18:11.443Z,99961.34
2024-02-29T04:20:39.029Z,99961.16
2024-02-29T04:23:08.046Z,99966.88
2024-02-29T04:25:35.681Z,99962.22
2024-02-29T04:28:03.975Z,99966.31
2024-02-29T04:30:31.891Z,99961.97
2024-02-29T04:33:01.474Z,99958.50
2024-02-29T04:35:29.346Z,99961.22
2024-02-29T04:37:56.970Z,99954.66
2024-02-29T04:40:27.551Z,99962.16
2024-02-29T04:42:55.285Z,99953.75
2024-02-29T04:45:24.384Z,99955.50
2024-02-29T04:47:53.210Z,99960.09
2024-02-29T04:50:20.837Z,99952.91
2024-02-29T04:52:48.435Z,99946.94
2024-02-29T04:55:16.201Z,99934.13
2024-02-29T04:57:45.248Z,99942.88
2024-02-29T05:00:14.302Z,99933.97
2024-02-29T05:02:41.986Z,99926.00
2024-02-29T05:05:09.903Z,99934.72
2024-02-29T05:07:38.620Z,99930.81
2024-02-29T05:10:08.717Z,99931.81
2024-02-29T05:12:36.841Z,99926.81
2024-02-29T05:15:06.868Z,99923.97
2024-02-29T05:17:34.542Z,99921.81
2024-02-29T05:20:02.118Z,99924.25
2024-02-29T05:22:29.699Z,99915.50
2024-02-29T05:24:59.206Z,99919.00
2024-02-29T05:27:30.583Z,99911.88
2024-02-29T05:29:58.466Z,99911.50
2024-02-29T05:32:28.982Z,99902.41
2024-02-29T05:34:56.640Z,99909.53
2024-02-29T05:37:24.898Z,99908.38
2024-02-29T05:39:52.602Z,99909.03
2024-02-29T05:42:22.379Z,99903.72
2024-02-29T05:44:50.392Z,99904.97
2024-02-29T05:47:18.087Z,99897.66
2024-02-29T05:49:47.157Z,99898.41
2024-02-29T05:52:15.001Z,99902.47
2024-02-29T05:54:42.750Z,99891.66
2024-02-29T05:57:10.485Z,99884.19
2024-02-29T05:59:38.086Z,99887.44
2024-02-29T06:02:06.297Z,99891.06
2024-02-29T06:04:34.130Z,99885.50
2024-02-29T06:07:03.374Z,99891.00
2024-02-29T06:09:30.975Z,99885.78
2024-02-29T06:11:58.946Z,99888.06
2024-02-29T06:14:26.818Z,99891.97
2024-02-29T06:16:54.422Z,99881.84
2024-02-29T06:19:22.065Z,99888.06
2024-02-29T06:21:50.126Z,99891.84
2024-02-29T06:24:20.381Z,99891.91
2024-02-29T06:26:48.349Z,99884.66
2024-02-29T06:29:15.972Z,99880.50
2024-02-29T06:31:44.078Z,99876.41
2024-02-29T06:34:11.925Z,99878.59
2024-02-29T06:36:39.851Z,99872.03
2024-02-29T06:39:09.281Z,99868.28
2024-02-29T06:41:39.417Z,99861.66
2024-02-29T06:44:08.322Z,99857.09
2024-02-29T06:46:35.919Z,99855.75
2024-02-29T06:49:04.154Z,99859.00
2024-02-29T06:51:33.219Z,99852.75
2024-02-29T06:54:00.908Z,99854.84
2024-02-29T06:56:28.468Z,99854.34
2024-02-29T06:58:57.373Z,99859.75
2024-02-29T07:01:25.439Z,99858.06
2024-02-29T07:03:53.086Z,99853.19
2024-02-29T07:06:20.953Z,99851.03
2024-02-29T07:08:48.543Z,99858.34
2024-02-29T07:11:16.150Z,99837.06
2024-02-29T07:13:43.827Z,99843.88
2024-02-29T07:16:12.821Z,99846.03
2024-02-29T07:18:40.445Z,99835.72
2024-02-29T07:21:08.056Z,99842.22
2024-02-29T07:23:37.146Z,99838.38
2024-02-29T07:26:05.385Z,99847.44
2024-02-29T07:28:33.021Z,99837.97
2024-02-29T07:31:00.759Z,99831.81
2024-02-29T07:33:31.618Z,99839.41
2024-02-29T07:35:59.218Z,99835.72
2024-02-29T07:38:26.938Z,99844.72
2024-02-29T07:40:54.553Z,99841.47
2024-02-29T07:43:22.205Z,99842.22
2024-02-29T07:45:49.892Z,99849.28
2024-02-29T07:48:17.608Z,99847.53
2024-02-29T07:50:46.737Z,99851.75
2024-02-29T07:53:14.430Z,99849.94
2024-02-29T07:55:42.101Z,99849.31
2024-02-29T07:58:10.811Z,99848.00
2024-02-29T08:00:39.115Z,99853.22
2024-02-29T08:03:07.089Z,99845.44
2024-02-29T08:05:35.669Z,99852.25
2024-02-29T08:08:04.762Z,99848.84
2024-02-29T08:10:32.422Z,99851.31
2024-02-29T08:13:00.067Z,99845.75
2024-02-29T08:15:27.705Z,99838.50
2024-02-29T08:17:55.381Z,99840.34
2024-02-29T08:20:26.441Z,99828.94
2024-02-29T08:22:55.327Z,99821.94
2024-02-29T08:25:24.990Z,99821.63
2024-02-29T08:27:52.678Z,99830.00
2024-02-29T08:30:20.684Z,99822.50
2024-02-29T08:32:49.885Z,99817.69
2024-02-29T08:35:17.764Z,99808.06
2024-02-29T08:37:45.371Z,99802.97
2024-02-29T08:40:13.679Z,99811.09
2024-02-29T08:42:42.737Z,99811.47
2024-02-29T08:45:11.235Z,99818.38
2024-02-29T08:47:38.826Z,99807.94
2024-02-29T08:50:07.946Z,99817.25
2024-02-29T08:52:35.853Z,99796.31
2024-02-29T08:55:04.442Z,99798.19
2024-02-29T08:57:32.141Z,99791.81
2024-02-29T09:00:01.485Z,99785.03
2024-02-29T09:02:29.437Z,99776.00
2024-02-29T09:04:57.046Z,99776.16
2024-02-29T09:07:25.108Z,99769.19
2024-02-29T09:09:52.881Z,99783.25
2024-02-29T09:12:20.577Z,99776.06
2024-02-29T09:14:48.434Z,99777.28
2024-02-29T09:17:17.359Z,99767.59
2024-02-29T09:19:45.545Z,99766.06
2024-02-29T09:22:13.206Z,99755.78
2024-02-29T09:24:41.018Z,99750.34
2024-02-29T09:27:08.745Z,99749.91
2024-02-29T09:29:36.348Z,99744.59
2024-02-29T09:32:04.074Z,99747.22
2024-02-29T09:34:38.342Z,99741.97
2024-02-29T09:37:07.562Z,99744.16
2024-02-29T09:39:35.445Z,99748.44
2024-02-29T09:44:36.068Z,99751.06
2024-02-29T09:47:04.396Z,99737.47
2024-02-29T09:49:33.437Z,99740.69
2024-02-29T09:52:01.144Z,99727.47
2024-02-29T09:54:31.954Z,99720.81
2024-02-29T09:56:59.744Z,99709.34
2024-02-29T09:59:28.872Z,99714.09
2024-02-29T10:01:56.953Z,99712.91
2024-02-29T10:04:24.752Z,99703.84
2024-02-29T10:06:54.235Z,99695.56
2024-02-29T10:09:22.549Z,99696.66
2024-02-29T10:11:50.352Z,99692.09
2024-02-29T10:14:21.899Z,99681.66
2024-02-29T10:16:52.802Z,99677.75
2024-02-29T10:19:21.131Z,99676.91
2024-02-29T10:21:49.211Z,99669.72
2024-02-29T10:24:20.499Z,99658.59
2024-02-29T10:26:48.248Z,99655.72
2024-02-29T10:29:18.291Z,99650.72
2024-02-29T10:31:46.073Z,99645.75
2024-02-29T10:34:14.615Z,99633.13
2024-02-29T10:36:42.359Z,99633.41
2024-02-29T10:39:11.649Z,99629.53
2024-02-29T10:41:42.856Z,99624.41
2024-02-29T10:44:10.897Z,99614.16
2024-02-29T10:46:39.403Z,99612.09
2024-02-29T10:49:15.073Z,99611.38
2024-02-29T10:51:45.677Z,99598.53
2024-02-29T10:54:19.745Z,99611.03
2024-02-29T10:56:50.547Z,99603.41
2024-02-29T10:59:20.186Z,99604.56
2024-02-29T11:01:49.261Z,99598.56
2024-02-29T11:04:17.483Z,99595.28
2024-02-29T11:06:48.242Z,99582.59
2024-02-29T11:09:17.626Z,99576.78
2024-02-29T11:11:46.457Z,99576.56
2024-02-29T11:14:18.562Z,99573.16
2024-02-29T11:16:47.881Z,99563.38
2024-02-29T11:19:17.196Z,99559.72
2024-02-29T11:21:44.935Z,99552.78
2024-02-29T11:24:18.653Z,99544.56
2024-02-29T11:26:46.258Z,99540.75
2024-02-29T11:29:16.199Z,99545.63
2024-02-29T11:31:45.411Z,99531.72
2024-02-29T11:34:13.501Z,99524.16
2024-02-29T11:36:42.114Z,99523.56
2024-02-29T11:39:11.720Z,99523.63
2024-02-29T11:41:39.555Z,99518.75
2024-02-29T11:44:07.153Z,99504.78
2024-02-29T11:46:36.058Z,99503.50
2024-02-29T11:49:03.889Z,99497.78
2024-02-29T11:51:31.560Z,99488.06
2024-02-29T11:53:59.729Z,99487.94
2024-02-29T11:56:27.745Z,99483.88
2024-02-29T11:58:55.874Z,99477.72
2024-02-29T12:01:24.734Z,99479.56
2024-02-29T12:03:53.905Z,99467.81
2024-02-29T12:06:21.964Z,99466.63
2024-02-29T12:08:50.286Z,99472.16
2024-02-29T12:11:18.673Z,99465.28
2024-02-29T12:13:47.101Z,99460.28
2024-02-29T12:16:15.611Z,99460.28
2024-02-29T12:18:43.417Z,99449.25
2024-02-29T12:21:12.999Z,99445.34
2024-02-29T12:23:41.140Z,99439.00
2024-02-29T12:26:10.851Z,99433.28
2024-02-29T12:28:39.506Z,99432.34
2024-02-29T12:31:08.312Z,99427.34
2024-02-29T12:33:38.235Z,99417.25
2024-02-29T12:36:07.180Z,99415.75
2024-02-29T12:38:36.778Z,99404.28
2024-02-29T12:41:06.293Z,99402.44
2024-02-29T12:43:34.140Z,99395.38
2024-02-29T12:46:04.326Z,99385.63
2024-02-29T12:48:32.271Z,99388.88
2024-02-29T12:50:59.882Z,99389.25
2024-02-29T12:53:27.471Z,99376.19
2024-02-29T12:55:56.457Z,99374.31
2024-02-29T12:58:24.173Z,99366.53
2024-02-29T13:00:51.955Z,99363.88
2024-02-29T13:03:20.087Z,99354.59
2024-02-29T13:05:47.765Z,99351.25
2024-02-29T13:08:15.467Z,99338.97
2024-02-29T13:10:43.060Z,99335.38
2024-02-29T13:13:12.096Z,99324.84
2024-02-29T13:15:39.731Z,99312.66
2024-02-29T13:18:07.408Z,99318.59
2024-02-29T13:20:35.081Z,99318.81
2024-02-29T13:23:02.680Z,99304.41
2024-02-29T13:25:30.810Z,99297.25
2024-02-29T13:27:58.658Z,99296.28
2024-02-29T13:30:27.616Z,99289.88
2024-02-29T13:32:55.261Z,99288.78
2024-02-29T13:35:22.851Z,99283.28
2024-02-29T13:37:50.893Z,99281.81
2024-02-29T13:40:18.852Z,99277.84
2024-02-29T13:42:48.395Z,99277.06
2024-02-29T13:45:16.698Z,99271.53
2024-02-29T13:47:51.042Z,99257.09
2024-02-29T13:50:19.905Z,99260.91
2024-02-29T13:52:47.551Z,99256.56
2024-02-29T13:55:15.608Z,99251.34
2024-02-29T13:57:43.422Z,99244.34
2024-02-29T14:00:12.046Z,99241.25
2024-02-29T14:02:42.520Z,99241.41
2024-02-29T14:05:11.591Z,99235.34
2024-02-29T14:07:39.244Z,99228.88
2024-02-29T14:10:08.763Z,99218.78
2024-02-29T14:12:36.653Z,99216.25
2024-02-29T14:15:04.662Z,99220.53
2024-02-29T14:17:32.399Z,99215.56
2024-02-29T14:20:00.380Z,99207.84
2024-02-29T14:22:29.398Z,99201.34
2024-02-29T14:24:57.016Z,99202.75
2024-02-29T14:27:25.082Z,99195.03
2024-02-29T14:29:52.680Z,99180.88
2024-02-29T14:32:21.089Z,99178.84
2024-02-29T14:34:48.818Z,99176.06
2024-02-29T14:37:16.577Z,99169.00
2024-02-29T14:39:46.136Z,99170.63
2024-02-29T14:42:12.872Z,99161.75
2024-02-29T14:44:40.462Z,99155.78
2024-02-29T14:47:08.574Z,99151.00
2024-02-29T14:49:36.228Z,99143.31
2024-02-29T14:52:04.448Z,99142.34
2024-02-29T14:54:32.202Z,99142.41
2024-02-29T14:57:01.618Z,99129.69
2024-02-29T14:59:29.826Z,99126.97
2024-02-29T15:01:57.594Z,99126.56
2024-02-29T15:04:25.320Z,99126.63
2024-02-29T15:06:53.609Z,99130.03
2024-02-29T15:09:21.353Z,99126.75
2024-02-29T15:11:49.043Z,99118.16
2024-02-29T15:14:18.410Z,99120.53
2024-02-29T15:16:46.167Z,99115.56
2024-02-29T15:19:13.981Z,99106.72
2024-02-29T15:21:42.172Z,99112.88
2024-02-29T15:24:10.106Z,99100.09
2024-02-29T15:26:40.163Z,99101.75
2024-02-29T15:29:08.835Z,99095.06
2024-02-29T15:31:40.970Z,99089.88
2024-02-29T15:34:08.827Z,99086.78
2024-02-29T15:36:36.892Z,99080.94
2024-02-29T15:39:05.520Z,99080.44
2024-02-29T15:41:33.248Z,99077.03
2024-02-29T15:44:00.833Z,99070.72
2024-02-29T15:46:28.630Z,99067.25
2024-02-29T15:48:57.866Z,99066.28
2024-02-29T15:51:26.076Z,99056.75
2024-02-29T15:53:53.707Z,99052.19
2024-02-29T15:56:21.325Z,99040.59
2024-02-29T15:58:48.985Z,99042.31
2024-02-29T16:01:17.118Z,99042.16
2024-02-29T16:03:44.758Z,99041.91
2024-02-29T16:06:13.925Z,99054.44
2024-02-29T16:08:41.529Z,99058.69
2024-02-29T16:11:09.701Z,99056.72
2024-02-29T16:13:37.464Z,99036.91
2024-02-29T16:16:05.737Z,99043.75
2024-02-29T16:18:33.375Z,99041.44
2024-02-29T16:21:03.030Z,99036.13
2024-02-29T16:23:32.023Z,99032.66
2024-02-29T16:25:59.668Z,99036.91
2024-02-29T16:28:27.970Z,99023.06
2024-02-29T16:30:55.624Z,99020.22
2024-02-29T16:33:23.399Z,99015.63
2024-02-29T16:35:51.388Z,99033.91
2024-02-29T16:38:19.110Z,99024.63
2024-02-29T16:40:48.623Z,99022.03
2024-02-29T16:43:21.368Z,99017.41
2024-02-29T16:45:49.484Z,99017.75
2024-02-29T16:48:17.407Z,99015.69
2024-02-29T16:50:46.312Z,99015.63
2024-02-29T16:53:14.270Z,99014.66
2024-02-29T16:55:41.869Z,99017.25
2024-02-29T16:58:10.883Z,99012.34
2024-02-29T17:00:39.270Z,99009.94
2024-02-29T17:03:06.953Z,99007.56
2024-02-29T17:05:34.640Z,99012.94
2024-02-29T17:08:02.265Z,99009.66
2024-02-29T17:10:30.715Z,99011.16
2024-02-29T17:12:59.382Z,98999.88
2024-02-29T17:15:28.772Z,99005.09
2024-02-29T17:17:56.521Z,99002.22
2024-02-29T17:20:24.165Z,99003.16
2024-02-29T17:22:51.711Z,99014.81
2024-02-29T17:25:19.764Z,99015.78
2024-02-29T17:27:47.525Z,99009.66
2024-02-29T17:30:16.594Z,99006.44
2024-02-29T17:32:48.293Z,99008.25
2024-02-29T17:35:17.128Z,99016.44
2024-02-29T17:37:45.348Z,99013.63
2024-02-29T17:40:13.798Z,99016.66
2024-02-29T17:42:41.629Z,99019.16
2024-02-29T17:45:10.821Z,99010.88
2024-02-29T17:47:41.406Z,99011.47
2024-02-29T17:50:16.492Z,99006.53
2024-02-29T17:52:44.678Z,99004.88
2024-02-29T17:55:15.494Z,99008.63
2024-02-29T17:57:43.826Z,99009.53
2024-02-29T18:00:13.014Z,99006.69
2024-02-29T18:02:41.527Z,99003.09
2024-02-29T18:05:12.362Z,98998.84
2024-02-29T18:07:46.729Z,98995.88
2024-02-29T18:10:19.035Z,98995.72
2024-02-29T18:12:47.281Z,98994.69
2024-02-29T18:15:16.123Z,98986.50
2024-02-29T18:17:45.161Z,98988.56
2024-02-29T18:20:17.793Z,98982.44
2024-02-29T18:22:45.635Z,98980.09
2024-02-29T18:25:13.414Z,98983.88
2024-02-29T18:27:41.142Z,98979.28
2024-02-29T18:30:10.063Z,98975.78
2024-02-29T18:32:37.750Z,98977.06
2024-02-29T18:35:09.689Z,98975.59
2024-02-29T18:37:40.851Z,98969.41
2024-02-29T18:40:12.091Z,98966.03
2024-02-29T18:42:39.787Z,98966.16
2024-02-29T18:45:08.552Z,98969.50
2024-02-29T18:47:36.920Z,98967.41
2024-02-29T18:50:06.648Z,98973.22
2024-02-29T18:52:34.767Z,98970.41
2024-02-29T18:55:04.754Z,98958.34
2024-02-29T18:57:32.427Z,98951.66
2024-02-29T18:59:59.998Z,98949.63
2024-02-29T19:02:27.619Z,98946.50
2024-02-29T19:04:55.250Z,98955.06
2024-02-29T19:07:26.371Z,98942.03
2024-02-29T19:09:55.795Z,98936.00
2024-02-29T19:12:26.321Z,98947.75
2024-02-29T19:14:54.169Z,98955.81
2024-02-29T19:17:22.895Z,98944.53
2024-02-29T19:19:51.102Z,98954.56
2024-02-29T19:22:18.836Z,98948.81
2024-02-29T19:24:46.563Z,98941.97
2024-02-29T19:27:14.218Z,98937.47
2024-02-29T19:29:43.565Z,98939.38
2024-02-29T19:32:11.175Z,98933.97
2024-02-29T19:34:38.754Z,98930.81
2024-02-29T19:37:06.680Z,98932.69
2024-02-29T19:39:35.790Z,98935.16
2024-02-29T19:42:04.188Z,98931.31
2024-02-29T19:44:31.780Z,98921.63
2024-02-29T19:47:00.761Z,98935.16
2024-02-29T19:49:28.484Z,98923.75
2024-02-29T19:51:57.575Z,98912.13
2024-02-29T19:54:25.225Z,98913.47
2024-02-29T19:56:52.881Z,98916.75
2024-02-29T19:59:20.510Z,98916.06
2024-02-29T20:01:48.208Z,98915.84
2024-02-29T20:04:18.806Z,98912.19
2024-02-29T20:06:48.062Z,98913.34
2024-02-29T20:09:16.283Z,98910.78
2024-02-29T20:11:43.962Z,98906.25
2024-02-29T20:14:11.542Z,98897.69
2024-02-29T20:16:39.361Z,98904.31
2024-02-29T20:19:08.792Z,98903.06
2024-02-29T20:21:37.825Z,98907.41
2024-02-29T20:24:06.212Z,98898.94
2024-02-29T20:26:34.273Z,98896.19
2024-02-29T20:29:01.864Z,98903.44
2024-02-29T20:31:30.152Z,98897.84
2024-02-29T20:33:58.311Z,98901.88
2024-02-29T20:36:26.232Z,98894.78
2024-02-29T20:38:55.212Z,98908.34
2024-02-29T20:41:22.882Z,98903.53
2024-02-29T20:43:50.434Z,98905.84
2024-02-29T20:46:18.174Z,98903.31
2024-02-29T20:48:48.975Z,98902.78
2024-02-29T20:51:16.683Z,98903.22
2024-02-29T20:53:44.669Z,98902.41
2024-02-29T20:56:13.972Z,98902.25
2024-02-29T20:58:41.609Z,98897.47
2024-02-29T21:01:09.442Z,98889.16
2024-02-29T21:03:37.195Z,98896.56
2024-02-29T21:06:05.187Z,98896.16
2024-02-29T21:08:33.485Z,98884.59
2024-02-29T21:11:02.057Z,98883.66
2024-02-29T21:13:31.931Z,98885.88
2024-02-29T21:15:59.804Z,98885.56
2024-02-29T21:18:27.569Z,98877.06
2024-02-29T21:20:55.448Z,98882.34
2024-02-29T21:23:23.100Z,98880.09
2024-02-29T21:25:50.742Z,98881.13
2024-02-29T21:28:18.580Z,98881.94
2024-02-29T21:30:47.707Z,98879.88
2024-02-29T21:33:16.360Z,98886.88
2024-02-29T21:35:44.126Z,98888.13
2024-02-29T21:38:11.719Z,98888.28
2024-02-29T21:40:39.377Z,98889.38
2024-02-29T21:43:07.230Z,98894.56
2024-02-29T21:45:34.937Z,98888.41
2024-02-29T21:48:04.169Z,98886.38
2024-02-29T21:50:31.879Z,98883.09
2024-02-29T21:52:59.470Z,98888.69
2024-02-29T21:55:27.144Z,98883.25
2024-02-29T21:57:55.427Z,98887.88
2024-02-29T22:00:23.993Z,98889.53
2024-02-29T22:02:51.971Z,98878.22
2024-02-29T22:05:21.392Z,98886.25
2024-02-29T22:07:49.406Z,98877.25
2024-02-29T22:10:17.096Z,98870.94
2024-02-29T22:12:44.934Z,98885.16
2024-02-29T22:15:13.534Z,98875.31
2024-02-29T22:17:41.200Z,98863.59
2024-02-29T22:20:09.572Z,98874.50
2024-02-29T22:22:38.460Z,98872.19
2024-02-29T22:25:06.713Z,98883.66
2024-02-29T22:27:34.330Z,98876.94
2024-02-29T22:30:02.002Z,98875.41
2024-02-29T22:32:29.697Z,98878.13
2024-02-29T22:34:57.267Z,98875.56
2024-02-29T22:37:24.990Z,98873.41
2024-02-29T22:39:54.055Z,98864.34
2024-02-29T22:42:21.643Z,98856.88
2024-02-29T22:44:49.312Z,98866.25
2024-02-29T22:47:16.887Z,98856.34
2024-02-29T22:49:45.166Z,98848.50
2024-02-29T22:52:12.845Z,98847.56
2024-02-29T22:54:40.662Z,98847.44
2024-02-29T22:57:10.039Z,98853.44
2024-02-29T22:59:38.194Z,98847.72
2024-02-29T23:02:05.996Z,98848.31
2024-02-29T23:04:33.825Z,98841.09
2024-02-29T23:07:01.562Z,98833.00
2024-02-29T23:09:29.263Z,98841.56
2024-02-29T23:11:56.947Z,98837.84
2024-02-29T23:14:25.853Z,98828.38
2024-02-29T23:16:53.840Z,98820.75
2024-02-29T23:19:21.651Z,98825.72
2024-02-29T23:21:49.446Z,98817.13
2024-02-29T23:24:17.081Z,98807.47
2024-02-29T23:26:44.740Z,98809.56
2024-02-29T23:29:12.447Z,98806.84
2024-02-29T23:31:41.414Z,98800.84
2024-02-29T23:34:09.017Z,98799.00
2024-02-29T23:36:36.717Z,98811.06
2024-02-29T23:39:06.242Z,98812.38
2024-02-29T23:41:33.800Z,98812.75
2024-02-29T23:44:01.433Z,98802.41
2024-02-29T23:46:29.492Z,98807.91
2024-02-29T23:48:58.507Z,98811.63
2024-02-29T23:51:26.085Z,98812.97
2024-02-29T23:53:54.227Z,98808.03
2024-02-29T23:56:22.120Z,98814.00
2024-02-29T23:58:49.745Z,98809.31
